Time;durP1;ratioP1;P1;durP2;ratioP2;P2;SDS_P1;SDS_P2;PMS_P1;PMS_P2;Temp;Humidity;BMP_temperature;BMP_pressure;BME280_temperature;BME280_humidity;BME280_pressure;Samples;Min_cycle;Max_cycle;Signal;HPM_P1;HPM_P2
2022/12/05 00:00:18;;;;;;;13.50;12.10;;;;;;;9.06;65.62;97566.91;8380627;28;20248;-73
2022/12/05 00:04:22;;;;;;;15.60;13.37;;;;;;;9.02;65.61;97573.13;8380380;28;20248;-75
2022/12/05 00:08:25;;;;;;;17.63;13.17;;;;;;;9.09;65.57;97572.78;8380506;28;20296;-74
2022/12/05 00:12:28;;;;;;;14.93;12.47;;;;;;;8.99;65.47;97574.09;8380295;28;20305;-74
2022/12/05 00:16:32;;;;;;;14.00;12.47;;;;;;;8.95;65.85;97575.16;8380094;28;20237;-74
2022/12/05 00:20:36;;;;;;;15.13;13.53;;;;;;;9.00;65.90;97589.53;8380226;28;20253;-74
2022/12/05 00:24:39;;;;;;;15.00;13.20;;;;;;;8.94;65.69;97582.03;8380226;28;20245;-74
2022/12/05 00:28:43;;;;;;;15.33;13.33;;;;;;;9.05;65.87;97601.41;8380288;28;20397;-74
2022/12/05 00:32:46;;;;;;;15.60;12.80;;;;;;;9.13;65.46;97605.31;8380243;28;20434;-74
2022/12/05 00:36:50;;;;;;;14.27;12.63;;;;;;;9.11;65.67;97606.28;8380902;28;20233;-74
2022/12/05 00:40:52;;;;;;;19.97;14.63;;;;;;;9.13;65.62;97619.97;8379612;28;20238;-72
2022/12/05 00:44:55;;;;;;;17.43;14.87;;;;;;;9.14;65.40;97613.94;8379900;28;20302;-74
2022/12/05 00:48:59;;;;;;;17.93;14.67;;;;;;;8.97;65.96;97610.31;8379619;28;20272;-73
2022/12/05 00:53:03;;;;;;;16.43;14.20;;;;;;;9.06;66.06;97619.41;8379803;28;20296;-74
2022/12/05 00:57:06;;;;;;;17.47;14.53;;;;;;;9.01;65.79;97623.94;8379934;28;20228;-73
2022/12/05 01:01:11;;;;;;;14.93;13.17;;;;;;;9.02;65.87;97628.19;8379490;28;20277;-74
2022/12/05 01:05:14;;;;;;;15.67;12.73;;;;;;;9.08;66.14;97622.78;8379520;28;20288;-74
2022/12/05 01:09:20;;;;;;;16.17;13.33;;;;;;;9.02;66.00;97628.19;8379214;28;20282;-73
2022/12/05 01:13:23;;;;;;;17.57;13.70;;;;;;;9.08;65.98;97634.84;8379401;28;20234;-73
2022/12/05 01:17:26;;;;;;;16.80;14.10;;;;;;;9.00;66.01;97641.19;8379310;28;20449;-74
2022/12/05 01:21:29;;;;;;;16.17;14.37;;;;;;;8.97;66.52;97649.06;8380014;28;20242;-77
2022/12/05 01:25:33;;;;;;;17.27;14.40;;;;;;;9.05;66.49;97650.47;8380839;28;20237;-77
2022/12/05 01:29:35;;;;;;;17.00;13.17;;;;;;;9.05;65.97;97646.16;8382357;28;20257;-76
2022/12/05 01:33:38;;;;;;;18.37;14.70;;;;;;;9.06;66.53;97658.16;8386329;28;20234;-76
2022/12/05 01:37:41;;;;;;;16.07;13.83;;;;;;;9.09;66.12;97660.59;8386137;28;20237;-76
2022/12/05 01:41:48;;;;;;;16.80;13.83;;;;;;;9.06;66.42;97659.91;8385464;28;20451;-77
2022/12/05 01:45:51;;;;;;;17.33;14.47;;;;;;;9.08;66.40;97663.25;8385406;28;20452;-76
2022/12/05 01:49:54;;;;;;;19.77;15.60;;;;;;;9.06;66.25;97675.41;8384576;28;20512;-76
2022/12/05 01:53:58;;;;;;;18.07;14.93;;;;;;;8.99;66.29;97674.84;8385023;28;20231;-77
2022/12/05 01:58:03;;;;;;;22.37;15.77;;;;;;;8.96;65.90;97680.13;8384688;28;20252;-76
2022/12/05 02:02:06;;;;;;;19.13;15.80;;;;;;;9.02;66.28;97687.59;8384574;28;20234;-75
2022/12/05 02:06:09;;;;;;;20.13;15.33;;;;;;;9.04;66.11;97700.44;8384552;28;20332;-76
2022/12/05 02:10:12;;;;;;;22.30;16.47;;;;;;;9.00;65.96;97704.91;8384204;28;20238;-76
2022/12/05 02:14:24;;;;;;;22.03;16.27;;;;;;;8.97;66.18;97692.97;8384285;28;20225;-76
2022/12/05 02:18:38;;;;;;;25.07;18.23;;;;;;;8.96;65.71;97699.03;8384200;28;20333;-76
2022/12/05 02:23:07;;;;;;;23.77;17.93;;;;;;;9.02;65.62;97715.19;8383888;28;20244;-76
2022/12/05 02:27:32;;;;;;;24.60;18.43;;;;;;;8.92;65.81;97707.81;8383116;28;20237;-76
2022/12/05 02:31:40;;;;;;;24.77;18.17;;;;;;;8.99;65.96;97714.41;8383306;28;20251;-76
2022/12/05 02:35:51;;;;;;;24.83;18.57;;;;;;;8.73;65.64;97714.66;8382921;28;20232;-76
2022/12/05 02:40:00;;;;;;;20.77;15.87;;;;;;;8.89;65.98;97720.00;8381580;28;20526;-75
2022/12/05 02:44:06;;;;;;;21.13;16.47;;;;;;;8.91;66.00;97725.94;8382907;28;20240;-76
2022/12/05 02:48:11;;;;;;;21.60;16.47;;;;;;;9.00;65.32;97729.00;8382906;28;20549;-76
2022/12/05 02:52:16;;;;;;;23.67;17.47;;;;;;;8.88;65.84;97733.84;8382364;28;20458;-77
2022/12/05 02:56:20;;;;;;;22.47;16.77;;;;;;;8.98;65.19;97748.88;8382447;28;20519;-76
2022/12/05 03:00:22;;;;;;;22.13;16.13;;;;;;;8.98;65.22;97748.88;8382324;28;20235;-77
2022/12/05 03:04:27;;;;;;;23.33;16.77;;;;;;;9.00;65.49;97749.69;8382048;28;20248;-76
2022/12/05 03:08:35;;;;;;;21.70;16.10;;;;;;;8.88;65.50;97757.09;8382078;28;20331;-77
2022/12/05 03:12:41;;;;;;;19.33;14.93;;;;;;;8.85;65.89;97772.69;8381794;28;20403;-77
2022/12/05 03:16:47;;;;;;;18.73;13.90;;;;;;;8.65;65.73;97770.91;8381737;28;20233;-77
2022/12/05 03:20:54;;;;;;;16.80;12.63;;;;;;;8.80;65.15;97759.97;8381436;28;20233;-77
2022/12/05 03:24:58;;;;;;;15.03;12.20;;;;;;;8.77;65.43;97765.25;8381464;28;20225;-77
2022/12/05 03:29:09;;;;;;;16.43;12.83;;;;;;;8.85;64.63;97762.34;8363739;28;20239;-77
2022/12/05 03:33:14;;;;;;;16.83;12.87;;;;;;;8.78;64.85;97764.38;8348249;28;20243;-78
2022/12/05 03:37:24;;;;;;;17.97;13.13;;;;;;;8.71;65.10;97760.34;8376756;28;20220;-77
2022/12/05 03:41:32;;;;;;;14.93;12.43;;;;;;;8.78;64.79;97747.13;8381057;28;20233;-77
2022/12/05 03:45:39;;;;;;;15.47;12.73;;;;;;;8.68;64.59;97727.75;8381091;28;20230;-78
2022/12/05 03:49:45;;;;;;;15.57;13.27;;;;;;;8.55;64.88;97711.09;8380991;28;20232;-78
2022/12/05 03:53:52;;;;;;;18.40;14.60;;;;;;;8.65;64.08;97747.69;8380464;28;20339;-77
2022/12/05 03:57:58;;;;;;;15.27;12.87;;;;;;;8.60;64.31;97740.97;8372809;28;20540;-77
2022/12/05 04:02:05;;;;;;;15.90;13.53;;;;;;;8.75;63.87;97779.97;8380810;28;20599;-77
2022/12/05 04:06:16;;;;;;;16.47;13.93;;;;;;;8.66;63.78;97783.75;8380495;28;20347;-77
2022/12/05 04:10:23;;;;;;;17.77;13.73;;;;;;;8.72;64.10;97795.56;8380395;28;20273;-77
2022/12/05 04:14:30;;;;;;;16.93;13.80;;;;;;;8.69;63.39;97798.28;8380680;28;20572;-77
2022/12/05 04:18:34;;;;;;;18.13;14.27;;;;;;;8.76;64.04;97821.22;8380381;28;20230;-77
2022/12/05 04:22:37;;;;;;;17.63;14.40;;;;;;;8.78;63.75;97823.75;8380559;28;20233;-76
2022/12/05 04:26:45;;;;;;;16.33;13.67;;;;;;;8.72;63.69;97803.31;8380259;28;20261;-77
2022/12/05 04:30:50;;;;;;;17.17;14.00;;;;;;;8.77;63.33;97825.47;8380167;28;20240;-77
2022/12/05 04:34:57;;;;;;;16.97;13.73;;;;;;;8.67;63.80;97831.06;8371379;28;20225;-77
2022/12/05 04:39:04;;;;;;;16.80;14.37;;;;;;;8.66;63.87;97843.13;8379906;28;20279;-77
2022/12/05 04:43:08;;;;;;;16.60;14.30;;;;;;;8.83;63.55;97834.72;8380005;28;20536;-78
2022/12/05 04:47:13;;;;;;;15.13;12.73;;;;;;;8.75;63.03;97842.75;8379644;28;20267;-77
2022/12/05 04:51:18;;;;;;;14.53;11.67;;;;;;;8.69;63.51;97837.84;8379746;28;20624;-77
2022/12/05 04:55:24;;;;;;;13.30;11.90;;;;;;;8.70;63.15;97847.28;8379851;28;20564;-77
2022/12/05 04:59:29;;;;;;;12.03;10.83;;;;;;;8.68;63.09;97846.50;8379663;28;20240;-77
2022/12/05 05:03:36;;;;;;;10.33;9.23;;;;;;;8.42;63.14;97847.50;8380379;28;20487;-77
2022/12/05 05:07:43;;;;;;;9.00;8.10;;;;;;;8.56;62.58;97854.72;8385858;28;20237;-77
2022/12/05 05:11:46;;;;;;;8.43;7.60;;;;;;;8.59;62.40;97854.59;8385752;28;20441;-77
2022/12/05 05:15:50;;;;;;;8.40;7.50;;;;;;;8.68;62.08;97856.84;8385725;28;20513;-77
2022/12/05 05:20:22;;;;;;;8.80;7.90;;;;;;;8.69;62.03;97866.25;8385206;28;20525;-78
2022/12/05 05:24:22;;;;;;;8.40;7.60;;;;;;;8.64;61.92;97865.56;8385319;28;20248;-77
2022/12/05 05:28:25;;;;;;;10.27;9.10;;;;;;;8.72;62.23;97870.44;8385122;28;20264;-76
2022/12/05 05:32:29;;;;;;;8.43;7.47;;;;;;;8.75;61.98;97872.91;8384978;28;20240;-78
2022/12/05 05:36:31;;;;;;;8.93;7.53;;;;;;;8.72;61.78;97878.19;8385084;28;20526;-77
2022/12/05 05:40:35;;;;;;;7.20;6.50;;;;;;;8.43;62.30;97884.47;8384981;28;20283;-77
2022/12/05 05:44:38;;;;;;;6.30;5.53;;;;;;;8.47;61.61;97883.44;8384805;28;20537;-76
2022/12/05 05:48:42;;;;;;;6.13;5.53;;;;;;;8.47;61.07;97878.28;8384886;28;20255;-83
2022/12/05 05:52:44;;;;;;;6.57;5.87;;;;;;;8.51;61.40;97890.16;8384442;28;20545;-77
2022/12/05 05:56:47;;;;;;;6.20;5.60;;;;;;;8.47;61.31;97884.28;8384514;28;20259;-76
2022/12/05 06:00:50;;;;;;;6.90;5.20;;;;;;;8.47;60.98;97893.75;8384448;28;20229;-77
2022/12/05 06:04:54;;;;;;;6.47;5.73;;;;;;;8.34;61.41;97893.34;8383986;28;20229;-76
2022/12/05 06:08:57;;;;;;;6.07;5.47;;;;;;;8.54;60.73;97892.66;8384718;28;20235;-76
2022/12/05 06:13:00;;;;;;;5.80;5.30;;;;;;;8.54;60.75;97895.22;8384490;28;20252;-76
2022/12/05 06:17:02;;;;;;;6.30;5.70;;;;;;;8.35;61.22;97898.44;8383700;28;20241;-76
2022/12/05 06:21:08;;;;;;;7.17;6.47;;;;;;;8.28;60.62;97866.03;8383929;28;20252;-76
2022/12/05 06:25:17;;;;;;;7.10;6.37;;;;;;;8.49;60.40;97903.16;8383440;28;20292;-77
2022/12/05 06:29:21;;;;;;;7.67;6.40;;;;;;;8.50;60.52;97896.25;8383019;28;20244;-78
2022/12/05 06:33:29;;;;;;;6.87;6.13;;;;;;;8.54;60.68;97918.47;8383664;28;20241;-78
2022/12/05 06:37:35;;;;;;;7.40;6.37;;;;;;;8.37;60.67;97922.44;8383643;28;20221;-78
2022/12/05 06:41:38;;;;;;;8.47;7.37;;;;;;;8.29;60.61;97911.56;8383051;28;20458;-77
2022/12/05 06:45:41;;;;;;;8.13;7.07;;;;;;;8.36;61.24;97923.38;8382801;28;20236;-77
2022/12/05 06:49:44;;;;;;;9.90;8.47;;;;;;;8.20;61.17;97922.22;8382907;28;20294;-77
2022/12/05 06:53:48;;;;;;;10.57;7.67;;;;;;;8.25;60.27;97934.97;8382782;28;20299;-77
2022/12/05 06:57:50;;;;;;;10.20;7.97;;;;;;;8.36;60.18;97941.44;8382836;28;20236;-77
2022/12/05 07:01:53;;;;;;;14.70;10.47;;;;;;;8.14;60.21;97935.34;8382340;28;20401;-77
2022/12/05 07:05:56;;;;;;;14.90;11.23;;;;;;;8.08;60.22;97930.41;8382444;28;20550;-77
2022/12/05 07:10:00;;;;;;;15.73;11.67;;;;;;;8.21;60.35;97947.13;8381889;28;20237;-77
2022/12/05 07:14:04;;;;;;;16.93;12.00;;;;;;;8.09;59.46;97929.47;8382026;28;20237;-77
2022/12/05 07:18:20;;;;;;;17.30;12.93;;;;;;;8.08;59.78;97951.88;8381758;28;20425;-77
2022/12/05 07:22:24;;;;;;;17.67;12.27;;;;;;;8.13;59.66;97949.13;8381311;28;20241;-77
2022/12/05 07:26:28;;;;;;;16.70;12.43;;;;;;;8.09;59.72;97947.53;8380539;28;20244;-77
2022/12/05 07:30:30;;;;;;;21.17;14.03;;;;;;;8.19;59.64;97957.50;8381697;28;20232;-77
2022/12/05 07:34:33;;;;;;;21.37;14.17;;;;;;;8.10;59.57;97965.56;8381635;28;20283;-77
2022/12/05 07:38:36;;;;;;;22.07;15.00;;;;;;;8.06;59.76;97981.19;8381326;28;20525;-77
2022/12/05 07:42:40;;;;;;;21.00;15.23;;;;;;;7.80;60.47;97970.84;8381220;28;20236;-77
2022/12/05 07:46:43;;;;;;;23.33;15.67;;;;;;;8.05;59.96;97974.34;8381224;28;20236;-77
2022/12/05 07:50:46;;;;;;;20.80;14.13;;;;;;;8.27;59.46;97977.03;8380930;28;20236;-77
2022/12/05 07:54:49;;;;;;;22.40;14.30;;;;;;;8.29;59.62;97986.41;8380918;28;20243;-79
2022/12/05 07:58:53;;;;;;;19.13;13.90;;;;;;;8.17;59.13;97997.16;8380638;28;20290;-79
2022/12/05 08:02:56;;;;;;;21.27;15.30;;;;;;;8.30;58.55;97984.66;8380347;28;20232;-78
2022/12/05 08:06:59;;;;;;;19.97;14.13;;;;;;;8.36;58.11;97979.31;8380609;28;20520;-79
2022/12/05 08:11:06;;;;;;;20.33;14.30;;;;;;;8.41;58.16;97993.75;8380419;28;20256;-82
2022/12/05 08:15:12;;;;;;;19.37;14.83;;;;;;;8.29;58.52;97998.47;8380177;28;20259;-81
2022/12/05 08:19:15;;;;;;;20.10;13.70;;;;;;;8.22;57.95;97990.94;8380537;28;20232;-81
2022/12/05 08:23:18;;;;;;;18.50;13.87;;;;;;;8.35;58.09;98004.25;8380565;28;20551;-81
2022/12/05 08:27:21;;;;;;;17.70;13.27;;;;;;;8.36;57.99;98000.78;8380359;28;20237;-81
2022/12/05 08:31:27;;;;;;;19.97;13.93;;;;;;;8.50;58.23;98007.22;8380446;28;20231;-81
2022/12/05 08:35:30;;;;;;;18.30;13.80;;;;;;;8.54;57.64;98017.38;8379923;28;20236;-81
2022/12/05 08:39:32;;;;;;;19.93;14.07;;;;;;;8.51;57.79;98030.41;8382385;28;20536;-81
2022/12/05 08:43:40;;;;;;;20.53;14.33;;;;;;;8.30;58.36;98007.88;8386721;28;20269;-81
2022/12/05 08:47:44;;;;;;;18.60;14.07;;;;;;;8.37;58.43;98036.00;8386832;28;20239;-80
2022/12/05 08:51:47;;;;;;;17.87;13.00;;;;;;;8.51;57.83;98033.00;8386600;28;20398;-81
2022/12/05 08:55:50;;;;;;;19.23;13.57;;;;;;;8.43;58.43;98052.19;8386340;28;20240;-81
2022/12/05 08:59:53;;;;;;;14.17;10.30;;;;;;;9.20;77.73;98056.31;8377671;28;20224;-84
2022/12/05 09:03:57;;;;;;;14.63;11.43;;;;;;;10.39;69.36;98009.38;8387356;28;20224;-83
2022/12/05 09:08:00;;;;;;;14.70;11.77;;;;;;;11.53;62.38;98051.78;8386098;28;20551;-85
2022/12/05 09:12:04;;;;;;;15.90;12.27;;;;;;;11.82;56.66;98060.81;8385951;28;20353;-81
2022/12/05 09:16:07;;;;;;;17.67;14.20;;;;;;;10.11;54.82;98070.03;8386150;28;20475;-81
2022/12/05 09:20:12;;;;;;;16.93;13.87;;;;;;;9.73;54.28;98078.44;8386361;28;20420;-80
2022/12/05 09:24:15;;;;;;;18.87;13.87;;;;;;;9.14;56.25;98084.97;8385806;28;20225;-80
2022/12/05 09:28:18;;;;;;;20.20;14.63;;;;;;;9.28;56.44;98084.44;8385639;28;20256;-79
2022/12/05 09:32:21;;;;;;;18.53;12.63;;;;;;;9.26;56.45;98085.41;8385175;28;20227;-81
2022/12/05 09:36:27;;;;;;;18.10;14.07;;;;;;;8.86;57.34;98074.78;8385065;28;20229;-79
2022/12/05 09:40:30;;;;;;;18.27;13.23;;;;;;;8.97;57.25;98077.81;8384988;28;20239;-79
2022/12/05 09:44:41;;;;;;;16.93;13.03;;;;;;;8.92;56.59;98076.31;8384791;28;20244;-78
2022/12/05 09:48:44;;;;;;;17.20;13.20;;;;;;;8.89;56.94;98086.72;8384322;28;20225;-79
2022/12/05 09:52:55;;;;;;;17.03;13.47;;;;;;;8.59;58.20;98094.66;8384355;28;20235;-77
2022/12/05 09:56:58;;;;;;;18.10;13.80;;;;;;;8.60;57.50;98086.88;8377104;28;20333;-81
2022/12/05 10:01:04;;;;;;;16.60;12.87;;;;;;;8.77;57.35;98085.44;8384722;28;20242;-81
2022/12/05 10:05:08;;;;;;;15.83;12.13;;;;;;;8.22;58.19;98088.13;8384209;28;20229;-80
2022/12/05 10:09:34;;;;;;;17.27;12.70;;;;;;;8.69;57.93;98087.44;8384276;28;20233;-80
2022/12/05 10:13:45;;;;;;;16.80;12.93;;;;;;;8.70;58.19;98083.94;8384169;28;20536;-80
2022/12/05 10:17:51;;;;;;;17.20;12.77;;;;;;;8.42;59.48;98087.50;8384218;28;20225;-80
2022/12/05 10:21:57;;;;;;;19.40;14.57;;;;;;;8.34;58.60;98090.31;8383691;28;20298;-79
2022/12/05 10:26:03;;;;;;;19.83;14.13;;;;;;;8.36;58.37;98090.25;8383898;28;20235;-78
2022/12/05 10:30:13;;;;;;;17.37;13.27;;;;;;;8.68;58.14;98090.91;8383987;28;20271;-78
2022/12/05 10:34:20;;;;;;;19.40;14.40;;;;;;;8.60;58.47;98094.63;8383133;28;20226;-77
2022/12/05 10:38:26;;;;;;;18.67;14.03;;;;;;;8.69;58.17;98079.69;8383487;28;20527;-79
2022/12/05 10:42:32;;;;;;;18.20;12.90;;;;;;;8.91;68.71;98087.50;8383294;28;20247;-75
2022/12/05 10:46:35;;;;;;;18.93;14.07;;;;;;;8.56;58.23;98076.69;8383966;28;20550;-77
2022/12/05 10:50:39;;;;;;;18.33;13.33;;;;;;;8.58;58.83;98080.91;8383098;28;20227;-79
2022/12/05 10:54:44;;;;;;;18.77;13.90;;;;;;;8.83;58.15;98082.63;8383361;28;20252;-78
2022/12/05 10:58:55;;;;;;;17.33;13.67;;;;;;;8.73;58.23;98087.28;8383047;28;20230;-78
2022/12/05 11:03:00;;;;;;;16.70;13.03;;;;;;;8.56;59.30;98087.03;8373923;28;20431;-77
2022/12/05 11:07:05;;;;;;;21.53;14.00;;;;;;;8.32;59.77;98086.06;8382690;28;20254;-79
2022/12/05 11:11:18;;;;;;;18.07;13.97;;;;;;;8.63;58.89;98075.59;8382705;28;20232;-78
2022/12/05 11:15:24;;;;;;;18.13;12.60;;;;;;;8.69;59.61;98072.78;8382765;28;20232;-78
2022/12/05 11:19:29;;;;;;;18.13;13.57;;;;;;;8.72;60.15;98075.28;8382062;28;20228;-78
2022/12/05 11:23:32;;;;;;;17.97;13.70;;;;;;;8.63;61.27;98073.00;8382340;28;20234;-78
2022/12/05 11:27:34;;;;;;;19.07;14.53;;;;;;;8.67;61.52;98079.75;8381730;28;20239;-78
2022/12/05 11:31:38;;;;;;;17.67;13.63;;;;;;;8.83;61.40;98067.13;8382007;28;20232;-78
2022/12/05 11:35:41;;;;;;;18.37;14.80;;;;;;;8.98;61.31;98066.56;8381882;28;20513;-79
2022/12/05 11:39:44;;;;;;;17.80;14.07;;;;;;;9.07;61.39;98068.00;8381800;28;20514;-78
2022/12/05 11:44:00;;;;;;;15.80;12.50;;;;;;;8.96;61.18;98063.22;8381641;28;20234;-78
2022/12/05 11:48:23;;;;;;;17.60;13.40;;;;;;;9.06;61.21;98060.28;8381683;28;20244;-77
2022/12/05 11:52:33;;;;;;;14.53;11.73;;;;;;;9.03;60.64;98055.25;8381533;28;20608;-79
2022/12/05 11:56:46;;;;;;;14.70;10.97;;;;;;;8.77;61.28;98038.94;8381408;28;20256;-78
2022/12/05 12:00:58;;;;;;;13.93;12.00;;;;;;;8.89;61.66;98058.31;8381884;28;20246;-79
2022/12/05 12:05:05;;;;;;;14.30;11.70;;;;;;;9.11;60.90;98054.06;8380728;28;20249;-80
2022/12/05 12:09:28;;;;;;;13.27;11.10;;;;;;;8.84;61.51;98048.16;8381192;28;20305;-80
2022/12/05 12:13:44;;;;;;;13.50;11.03;;;;;;;8.59;62.40;98043.88;8382199;28;20237;-80
2022/12/05 12:17:53;;;;;;;14.80;12.07;;;;;;;8.50;63.78;98044.19;8382898;28;20232;-78
2022/12/05 12:22:07;;;;;;;13.87;11.90;;;;;;;9.08;61.49;98033.53;8380926;28;20291;-77
2022/12/05 12:26:13;;;;;;;13.90;10.83;;;;;;;9.28;61.78;98037.09;8380819;28;20279;-80
2022/12/05 12:30:18;;;;;;;12.83;11.40;;;;;;;9.35;61.80;98038.56;8380422;28;20224;-77
2022/12/05 12:34:51;;;;;;;12.40;10.57;;;;;;;9.46;61.10;98031.22;8380883;28;20252;-78
2022/12/05 12:39:04;;;;;;;11.93;10.13;;;;;;;9.24;60.85;98017.44;8366448;28;20226;-78
2022/12/05 12:43:12;;;;;;;11.90;10.30;;;;;;;8.93;62.08;98049.56;8380454;28;20250;-79
2022/12/05 12:47:44;;;;;;;11.73;9.30;;;;;;;9.21;62.05;98051.97;8380638;28;20293;-81
2022/12/05 12:51:52;;;;;;;11.27;9.00;;;;;;;9.28;61.22;98043.09;8380384;28;20229;-77
2022/12/05 12:56:02;;;;;;;11.23;8.07;;;;;;;9.30;62.69;98054.22;8379552;28;20256;-77
2022/12/05 13:00:13;;;;;;;8.63;7.40;;;;;;;9.28;60.58;98050.84;8379684;28;20272;-76
2022/12/05 13:04:19;;;;;;;7.87;7.13;;;;;;;9.25;60.74;98057.88;8379494;28;20239;-75
2022/12/05 13:08:26;;;;;;;7.33;6.63;;;;;;;9.29;60.40;98049.09;8379589;28;20233;-75
2022/12/05 13:12:33;;;;;;;7.83;7.10;;;;;;;9.36;60.32;98059.16;8379741;28;20553;-74
2022/12/05 13:16:39;;;;;;;7.27;6.57;;;;;;;9.34;60.68;98058.38;8379094;28;20229;-74
2022/12/05 13:20:49;;;;;;;8.93;6.90;;;;;;;9.31;60.47;98050.75;8377535;28;20295;-74
2022/12/05 13:24:53;;;;;;;8.57;7.67;;;;;;;9.28;60.66;98042.25;8380324;28;20252;-73
2022/12/05 13:28:59;;;;;;;9.00;7.73;;;;;;;9.42;61.28;98046.91;8385314;28;20229;-73
2022/12/05 13:33:06;;;;;;;8.63;7.73;;;;;;;9.29;60.35;98054.28;8384990;28;20234;-74
2022/12/05 13:46:06;;;;;;;9.13;8.23;;;;;;;9.23;60.84;98054.50;8377198;28;20523;-74
2022/12/05 13:50:14;;;;;;;11.33;9.20;;;;;;;9.29;60.97;98060.31;8385000;28;20428;-74
2022/12/05 13:54:20;;;;;;;12.60;8.90;;;;;;;9.28;61.17;98052.59;8384653;28;20230;-75
2022/12/05 13:58:50;;;;;;;10.87;9.40;;;;;;;9.29;60.84;98054.28;8384590;28;20307;-74
2022/12/05 14:02:56;;;;;;;11.47;10.00;;;;;;;9.23;61.44;98057.09;8348541;28;20536;-73
2022/12/05 14:06:58;;;;;;;12.10;10.67;;;;;;;9.18;61.32;98059.84;8384014;28;20229;-74
2022/12/05 14:11:10;;;;;;;14.30;11.00;;;;;;;9.01;61.92;98070.81;8384123;28;20526;-73
2022/12/05 14:15:30;;;;;;;14.87;11.80;;;;;;;9.09;61.24;98052.44;8383591;28;20238;-73
2022/12/05 14:20:05;;;;;;;13.70;10.87;;;;;;;9.20;61.01;98063.22;8384165;28;20539;-75
2022/12/05 14:24:11;;;;;;;13.60;10.47;;;;;;;9.18;61.37;98059.84;8339262;28;20227;-74
2022/12/05 14:28:22;;;;;;;14.03;11.30;;;;;;;9.10;61.29;98046.38;8383609;28;20233;-75
2022/12/05 14:32:29;;;;;;;14.52;12.85;;;;;;;9.78;59.24;98063.56;8382214;28;20476;-74
2022/12/05 14:36:33;;;;;;;12.63;11.33;;;;;;;9.35;61.02;98065.22;8383283;28;20263;-74
2022/12/05 14:40:37;;;;;;;13.07;11.67;;;;;;;9.25;61.23;98063.03;8383340;28;20242;-76
2022/12/05 14:44:46;;;;;;;15.47;12.63;;;;;;;9.22;61.02;98056.25;8383311;28;20241;-75
2022/12/05 14:48:49;;;;;;;15.03;11.63;;;;;;;9.14;60.89;98053.97;8382692;28;20235;-74
2022/12/05 14:53:21;;;;;;;16.77;14.97;;;;;;;9.25;60.81;98050.13;8382742;28;20223;-72
2022/12/05 14:57:24;;;;;;;16.53;14.33;;;;;;;9.21;61.86;98046.81;8369360;28;20275;-74
2022/12/05 15:01:28;;;;;;;15.37;12.40;;;;;;;9.22;60.99;98045.91;8381865;28;20246;-75
2022/12/05 15:05:32;;;;;;;17.20;13.73;;;;;;;9.17;61.20;98050.41;8382064;28;20268;-74
2022/12/05 15:09:47;;;;;;;17.10;14.27;;;;;;;9.18;61.31;98055.53;8382236;28;20244;-73
2022/12/05 15:13:50;;;;;;;13.53;11.00;;;;;;;9.19;61.21;98053.78;8382307;28;20231;-73
2022/12/05 15:17:56;;;;;;;13.57;11.30;;;;;;;9.22;61.16;98058.84;8373047;28;20536;-73
2022/12/05 15:22:01;;;;;;;14.07;12.13;;;;;;;9.18;61.19;98059.84;8381813;28;20249;-73
2022/12/05 15:26:17;;;;;;;13.83;12.33;;;;;;;9.13;60.82;98061.75;8381529;28;20236;-74
2022/12/05 15:30:41;;;;;;;11.83;10.00;;;;;;;9.01;61.36;98068.22;8381650;28;20294;-74
2022/12/05 15:34:48;;;;;;;10.87;8.93;;;;;;;8.87;61.81;98070.44;8381429;28;20234;-74
2022/12/05 15:38:51;;;;;;;8.90;8.00;;;;;;;8.87;61.07;98060.13;8381539;28;20551;-74
2022/12/05 15:42:56;;;;;;;9.27;7.93;;;;;;;8.93;60.61;98070.22;8380868;28;20227;-74
2022/12/05 15:46:59;;;;;;;9.20;8.10;;;;;;;8.86;60.85;98072.19;8380613;28;20237;-75
2022/12/05 15:51:02;;;;;;;9.13;8.13;;;;;;;8.94;59.88;98075.34;8381176;28;20244;-74
2022/12/05 15:55:08;;;;;;;12.13;8.00;;;;;;;11.26;77.42;98078.06;8381280;28;20559;-78
2022/12/05 15:59:16;;;;;;;9.97;7.30;;;;;;;11.84;62.36;98071.94;8380893;28;20372;-79
2022/12/05 16:03:23;;;;;;;9.37;7.30;;;;;;;12.13;58.83;98072.31;8380723;28;20270;-79
2022/12/05 16:07:28;;;;;;;11.10;10.00;;;;;;;11.46;53.85;98077.19;8378622;28;20409;-74
2022/12/05 16:11:31;;;;;;;10.02;9.02;;;;;;;10.28;57.02;98082.28;8380861;28;20652;-76
2022/12/05 16:15:36;;;;;;;8.27;7.47;;;;;;;10.01;57.42;98084.25;8380238;28;20233;-75
2022/12/05 16:19:42;;;;;;;9.67;8.07;;;;;;;9.84;57.72;98085.75;8380403;28;20229;-76
2022/12/05 16:23:44;;;;;;;8.30;7.40;;;;;;;9.75;57.66;98099.06;8380513;28;20249;-76
2022/12/05 16:27:56;;;;;;;6.60;5.67;;;;;;;9.50;57.93;98093.97;8380697;28;20244;-74
2022/12/05 16:32:03;;;;;;;6.20;5.70;;;;;;;9.34;58.29;98102.31;8379577;28;20236;-75
2022/12/05 16:36:09;;;;;;;7.53;6.73;;;;;;;9.21;58.45;98103.66;8380212;28;20297;-75
2022/12/05 16:40:21;;;;;;;7.00;5.93;;;;;;;9.18;58.45;98096.03;8380207;28;20226;-74
2022/12/05 16:45:00;;;;;;;6.23;5.63;;;;;;;9.07;58.73;98109.34;8379900;28;20558;-74
2022/12/05 16:49:32;;;;;;;6.97;5.87;;;;;;;9.14;58.93;98115.13;8278282;28;20242;-74
2022/12/05 16:53:36;;;;;;;6.53;5.93;;;;;;;9.09;59.13;98122.19;8337706;28;20227;-73
2022/12/05 16:57:39;;;;;;;5.73;5.23;;;;;;;9.07;59.92;98114.50;8380131;28;20240;-75
2022/12/05 17:01:41;;;;;;;6.77;6.07;;;;;;;9.00;59.22;98115.59;8383569;28;20229;-73
2022/12/05 17:05:45;;;;;;;7.17;6.37;;;;;;;8.92;59.65;98115.88;8385993;28;20527;-75
2022/12/05 17:09:48;;;;;;;6.70;6.10;;;;;;;9.54;57.70;98124.00;8383929;28;20814;-75
2022/12/05 17:13:51;;;;;;;6.37;5.77;;;;;;;8.71;59.83;98120.06;8385808;28;20229;-73
2022/12/05 17:17:55;;;;;;;6.00;5.50;;;;;;;8.76;59.77;98133.66;8385534;28;20239;-74
2022/12/05 17:21:59;;;;;;;6.50;5.90;;;;;;;8.84;59.79;98135.13;8385563;28;20233;-73
2022/12/05 17:26:02;;;;;;;6.70;6.10;;;;;;;8.90;59.74;98130.59;8385066;28;20451;-74
2022/12/05 17:30:07;;;;;;;6.97;6.27;;;;;;;8.91;59.67;98136.59;8385527;28;20229;-73
2022/12/05 17:34:14;;;;;;;9.23;7.47;;;;;;;8.96;59.85;98139.88;8385294;28;20229;-73
2022/12/05 17:38:18;;;;;;;8.83;7.87;;;;;;;8.91;59.78;98144.34;8385039;28;20256;-72
2022/12/05 17:42:21;;;;;;;10.80;9.70;;;;;;;8.87;60.91;98135.88;8384993;28;20522;-73
2022/12/05 17:46:24;;;;;;;11.43;10.23;;;;;;;8.79;61.38;98138.69;8384885;28;20248;-73
2022/12/05 17:50:28;;;;;;;13.67;10.80;;;;;;;8.90;60.69;98143.50;8384476;28;20236;-73
2022/12/05 17:54:32;;;;;;;10.50;9.47;;;;;;;8.72;61.35;98139.81;8384746;28;20229;-74
2022/12/05 17:58:35;;;;;;;18.10;14.17;;;;;;;8.77;61.32;98135.31;8384303;28;20229;-73
2022/12/05 18:02:38;;;;;;;33.37;21.37;;;;;;;9.02;60.21;98128.47;8383651;28;20417;-75
2022/12/05 18:06:41;;;;;;;11.30;9.43;;;;;;;8.62;60.69;98110.03;8384117;28;20447;-75
2022/12/05 18:10:47;;;;;;;11.30;10.03;;;;;;;8.79;60.72;98128.38;8383669;28;20291;-75
2022/12/05 18:14:50;;;;;;;9.87;8.87;;;;;;;8.75;61.23;98133.72;8383955;28;20247;-75
2022/12/05 18:18:52;;;;;;;9.53;8.57;;;;;;;8.67;61.17;98122.81;8383527;28;20240;-75
2022/12/05 18:22:55;;;;;;;9.87;8.03;;;;;;;8.58;62.10;98126.53;8383751;28;20300;-75
2022/12/05 18:27:00;;;;;;;9.13;8.20;;;;;;;8.71;61.46;98125.22;8383839;28;20225;-76
2022/12/05 18:31:04;;;;;;;10.40;9.30;;;;;;;8.54;61.60;98122.38;8383575;28;20251;-76
2022/12/05 18:35:09;;;;;;;12.83;10.30;;;;;;;8.55;61.57;98122.31;8383366;28;20225;-76
2022/12/05 18:39:14;;;;;;;11.47;10.00;;;;;;;8.49;61.87;98119.09;8383185;28;20417;-77
2022/12/05 18:43:19;;;;;;;10.27;9.27;;;;;;;8.53;61.53;98126.69;8383066;28;20426;-77
2022/12/05 18:47:23;;;;;;;10.53;9.10;;;;;;;8.53;61.64;98134.44;8383100;28;20233;-76
2022/12/05 18:51:26;;;;;;;12.27;10.70;;;;;;;8.53;61.59;98131.84;8382751;28;20233;-75
2022/12/05 18:55:29;;;;;;;11.50;10.30;;;;;;;8.43;61.57;98130.47;8382617;28;20278;-74
2022/12/05 18:59:53;;;;;;;11.60;10.33;;;;;;;8.45;62.16;98145.91;8382134;28;20365;-75
2022/12/05 19:03:56;;;;;;;16.97;15.13;;;;;;;8.40;61.52;98143.44;8381760;28;20246;-75
2022/12/05 19:07:59;;;;;;;13.10;11.77;;;;;;;8.47;61.28;98151.84;8382143;28;20236;-75
2022/12/05 19:12:02;;;;;;;16.43;14.17;;;;;;;8.42;61.57;98154.59;8381886;28;20256;-74
2022/12/05 19:16:08;;;;;;;15.23;13.53;;;;;;;8.39;61.64;98158.06;8381904;28;20229;-75
2022/12/05 19:20:12;;;;;;;17.10;14.20;;;;;;;8.46;61.70;98157.94;8381763;28;20233;-75